createdAt,value
2018-06-29T04:31:07.477Z,15.57
2018-06-29T04:32:07.632Z,15.66
2018-06-29T04:33:07.379Z,15.6
2018-06-29T04:34:07.611Z,15.68
2018-06-29T04:35:07.344Z,15.67
2018-06-29T04:36:07.325Z,15.64
2018-06-29T04:37:07.321Z,15.7
2018-06-29T04:38:07.294Z,15.74
2018-06-29T04:39:07.021Z,15.74
2018-06-29T04:40:07.266Z,15.72
2018-06-29T04:41:07.513Z,15.7
2018-06-29T04:42:07.262Z,15.68
2018-06-29T04:43:07.236Z,15.79
2018-06-29T04:44:07.219Z,15.79
2018-06-29T04:45:07.472Z,15.79
2018-06-29T04:46:07.185Z,15.89
2018-06-29T04:47:07.473Z,15.92
2018-06-29T04:48:07.428Z,15.89
2018-06-29T04:49:07.169Z,15.93
2018-06-29T04:50:07.144Z,15.96
2018-06-29T04:51:06.864Z,15.99
2018-06-29T04:52:07.117Z,15.97
2018-06-29T04:53:07.430Z,15.99
2018-06-29T04:54:07.355Z,15.99
2018-06-29T04:55:07.351Z,16.09
2018-06-29T04:56:07.073Z,16.12
2018-06-29T04:57:07.072Z,16.09
2018-06-29T04:58:07.043Z,16.15
2018-06-29T04:59:07.035Z,16.2
2018-06-29T05:00:07.045Z,16.2
2018-06-29T05:01:07.169Z,16.18
2018-06-29T05:03:07.243Z,16.27
2018-06-29T05:04:06.713Z,16.35
2018-06-29T05:05:06.713Z,16.3
2018-06-29T05:06:07.207Z,16.35
2018-06-29T05:07:07.210Z,16.37
2018-06-29T05:08:07.212Z,16.33
2018-06-29T05:09:07.321Z,16.44
2018-06-29T05:10:07.166Z,16.49
2018-06-29T05:11:06.883Z,16.53
2018-06-29T05:12:07.136Z,16.49
2018-06-29T05:13:06.589Z,16.5
2018-06-29T05:14:06.586Z,16.56
2018-06-29T05:15:06.573Z,16.59
2018-06-29T05:16:06.567Z,16.6
2018-06-29T05:17:06.547Z,16.62
2018-06-29T05:18:07.077Z,16.68
2018-06-29T05:19:06.784Z,16.73
2018-06-29T05:20:07.059Z,16.74
2018-06-29T05:21:07.038Z,16.77
2018-06-29T05:22:06.485Z,16.74
2018-06-29T05:23:06.736Z,16.78
2018-06-29T05:24:06.459Z,16.86
2018-06-29T05:25:06.979Z,16.85
2018-06-29T05:26:06.976Z,16.88
2018-06-29T05:27:06.956Z,16.93
2018-06-29T05:28:06.682Z,16.92
2018-06-29T05:29:06.668Z,16.96
2018-06-29T05:30:06.660Z,16.93
2018-06-29T05:31:06.656Z,17.03
2018-06-29T05:32:06.625Z,16.98
2018-06-29T05:33:06.553Z,17.11
2018-06-29T05:34:06.340Z,17.06
2018-06-29T05:35:06.598Z,17.11
2018-06-29T05:36:06.601Z,17.15
2018-06-29T05:37:06.852Z,17.23
2018-06-29T05:38:06.559Z,17.25
2018-06-29T05:39:06.543Z,17.23
2018-06-29T05:40:06.549Z,17.26
2018-06-29T05:41:06.521Z,17.3
2018-06-29T05:42:06.779Z,17.35
2018-06-29T05:43:06.769Z,17.28
2018-06-29T05:44:06.226Z,17.32
2018-06-29T05:45:06.210Z,17.36
2018-06-29T05:46:06.494Z,17.36
2018-06-29T05:47:06.244Z,17.46
2018-06-29T05:48:06.173Z,17.5
2018-06-29T05:49:06.163Z,17.53
2018-06-29T05:50:06.419Z,17.46
2018-06-29T05:51:06.404Z,17.47
2018-06-29T05:52:06.661Z,17.47
2018-06-29T05:53:06.174Z,17.55
2018-06-29T05:54:06.373Z,17.54
2018-06-29T05:55:06.372Z,17.55
2018-06-29T05:56:06.624Z,17.62
2018-06-29T05:57:06.603Z,17.54
2018-06-29T05:58:06.064Z,17.64
2018-06-29T05:59:06.597Z,17.7
2018-06-29T06:00:06.567Z,17.74
2018-06-29T06:01:06.562Z,17.79
2018-06-29T06:02:06.472Z,17.81
2018-06-29T06:03:06.270Z,17.84
2018-06-29T06:04:06.561Z,17.87
2018-06-29T06:05:06.251Z,17.89
2018-06-29T06:06:06.505Z,18.02
2018-06-29T06:07:06.507Z,18.09
2018-06-29T06:08:06.212Z,18.07
2018-06-29T06:09:06.216Z,18.13
2018-06-29T06:10:05.972Z,18.19
2018-06-29T06:11:06.446Z,18.13
2018-06-29T06:12:06.166Z,18.15
2018-06-29T06:13:05.938Z,18.18
2018-06-29T06:14:06.146Z,18.28
2018-06-29T06:15:06.165Z,18.24
2018-06-29T06:16:06.211Z,18.31
2018-06-29T06:17:06.402Z,18.34
2018-06-29T06:18:06.124Z,18.42
2018-06-29T06:19:06.104Z,18.46
2018-06-29T06:20:05.817Z,18.52
2018-06-29T06:21:05.800Z,18.79
2018-06-29T06:22:06.189Z,19.32
2018-06-29T06:23:06.316Z,19.91
2018-06-29T06:24:06.036Z,20.62
2018-06-29T06:25:06.032Z,21.24
2018-06-29T06:26:06.294Z,21.63
2018-06-29T06:27:06.284Z,21.95
2018-06-29T06:28:05.995Z,21.98
2018-06-29T06:29:05.984Z,21.78
2018-06-29T06:30:06.216Z,21.5
2018-06-29T06:31:06.230Z,21.21
2018-06-29T06:32:05.962Z,20.96
2018-06-29T06:33:05.996Z,20.8
2018-06-29T06:34:06.224Z,20.62
2018-06-29T06:35:05.941Z,20.41
2018-06-29T06:36:05.915Z,20.39
2018-06-29T06:37:05.911Z,20.27
2018-06-29T06:38:05.900Z,20.24
2018-06-29T06:39:05.896Z,20.18
2018-06-29T06:40:06.146Z,20.1
2018-06-29T06:41:05.619Z,20.02
2018-06-29T06:42:06.131Z,19.95
2018-06-29T06:43:05.855Z,19.88
2018-06-29T06:44:05.838Z,19.94
2018-06-29T06:45:05.833Z,19.91
2018-06-29T06:46:06.085Z,19.87
2018-06-29T06:47:06.284Z,19.9
2018-06-29T06:48:05.808Z,19.86
2018-06-29T06:49:05.795Z,19.86
2018-06-29T06:50:05.523Z,20.02
2018-06-29T06:51:06.041Z,20.38
2018-06-29T06:52:06.031Z,21.35
2018-06-29T06:53:06.030Z,22.06
2018-06-29T06:54:05.492Z,22.54
2018-06-29T06:55:05.737Z,22.35
2018-06-29T06:56:06.007Z,22.2
2018-06-29T06:57:05.718Z,22.12
2018-06-29T06:58:05.982Z,22.23
2018-06-29T06:59:05.438Z,22.82
2018-06-29T07:00:05.703Z,23.8
2018-06-29T07:01:05.949Z,25.05
2018-06-29T07:02:05.678Z,26.11
2018-06-29T07:03:05.932Z,26.77
2018-06-29T07:04:05.663Z,27.61
2018-06-29T07:05:05.658Z,28.33
2018-06-29T07:06:05.911Z,28.97
2018-06-29T07:07:05.639Z,29.5
2018-06-29T07:08:05.377Z,29.92
2018-06-29T07:09:05.624Z,30.4
2018-06-29T07:10:05.611Z,30.61
2018-06-29T07:11:05.341Z,30.74
2018-06-29T07:12:05.598Z,30.71
2018-06-29T07:13:05.612Z,30.78
2018-06-29T07:14:05.582Z,30.9
2018-06-29T07:15:05.572Z,31.08
2018-06-29T07:16:05.829Z,31.26
2018-06-29T07:17:05.288Z,31.49
2018-06-29T07:18:05.548Z,31.75
2018-06-29T07:19:05.303Z,32.11
2018-06-29T07:20:05.553Z,32.37
2018-06-29T07:21:05.526Z,32.43
2018-06-29T07:22:05.794Z,32.74
2018-06-29T07:23:05.522Z,32.71
2018-06-29T07:24:05.511Z,32.96
2018-06-29T07:25:05.499Z,33.14
2018-06-29T07:26:05.495Z,33.14
2018-06-29T07:27:05.494Z,33.14
2018-06-29T07:28:05.487Z,33.14
2018-06-29T07:29:05.223Z,33.31
2018-06-29T07:30:06.003Z,33.45
2018-06-29T07:31:05.740Z,33.51
2018-06-29T07:32:05.484Z,33.63
2018-06-29T07:33:05.880Z,33.79
2018-06-29T07:34:05.730Z,33.94
2018-06-29T07:35:05.459Z,33.92
2018-06-29T07:36:05.468Z,33.92
2018-06-29T07:37:05.457Z,33.89
2018-06-29T07:38:05.454Z,34.16
2018-06-29T07:39:05.460Z,34.39
2018-06-29T07:40:05.184Z,34.57
2018-06-29T07:41:05.189Z,34.95
2018-06-29T07:42:05.449Z,35.13
2018-06-29T07:43:05.724Z,35.37
2018-06-29T07:44:05.448Z,35.39
2018-06-29T07:45:05.445Z,35.39
2018-06-29T07:46:05.445Z,35.55
2018-06-29T07:47:05.739Z,35.77
2018-06-29T07:48:05.180Z,35.7
2018-06-29T07:49:05.444Z,35.99
2018-06-29T07:50:05.717Z,36.15
2018-06-29T07:51:05.708Z,36.06
2018-06-29T07:52:05.447Z,36.21
2018-06-29T07:53:05.715Z,36.2
2018-06-29T07:54:05.456Z,36.35
2018-06-29T07:55:05.182Z,36.45
2018-06-29T07:56:05.449Z,36.3
2018-06-29T07:57:05.465Z,36.12
2018-06-29T07:58:05.921Z,36.3
2018-06-29T07:59:05.721Z,36.42
2018-06-29T08:00:05.457Z,36.56
2018-06-29T08:01:05.197Z,36.56
2018-06-29T08:02:05.461Z,36.7
2018-06-29T08:03:05.730Z,36.73
2018-06-29T08:04:05.638Z,36.79
2018-06-29T08:05:05.201Z,36.76
2018-06-29T08:06:05.469Z,36.77
2018-06-29T08:07:05.471Z,36.58
2018-06-29T08:08:05.208Z,36.6
2018-06-29T08:09:05.211Z,36.57
2018-06-29T08:10:05.770Z,36.57
2018-06-29T08:11:05.218Z,36.57
2018-06-29T08:12:05.489Z,36.6
2018-06-29T08:13:05.487Z,36.73
2018-06-29T08:14:05.221Z,36.8
2018-06-29T08:15:05.494Z,36.99
2018-06-29T08:16:05.757Z,37.1
2018-06-29T08:17:05.774Z,37.05
2018-06-29T08:18:05.503Z,37.14
2018-06-29T08:19:05.763Z,37.05
2018-06-29T08:20:05.773Z,37.14
2018-06-29T08:21:05.510Z,37.21
2018-06-29T08:22:05.780Z,37.24
2018-06-29T08:23:05.785Z,37.29
2018-06-29T08:24:05.516Z,37.09
2018-06-29T08:25:05.797Z,37.1
2018-06-29T08:26:05.794Z,37.21
2018-06-29T08:27:05.539Z,37.42
2018-06-29T08:28:05.541Z,37.39
2018-06-29T08:29:05.572Z,37.38
2018-06-29T08:30:05.843Z,37.24
2018-06-29T08:31:05.553Z,37.1
2018-06-29T08:32:05.556Z,36.97
2018-06-29T08:33:05.568Z,36.56
2018-06-29T08:34:05.828Z,36.43
2018-06-29T08:35:05.303Z,36.43
2018-06-29T08:36:05.828Z,36.36
2018-06-29T08:37:05.306Z,36.23
2018-06-29T08:38:05.837Z,35.99
2018-06-29T08:39:05.581Z,35.79
2018-06-29T08:40:05.609Z,35.7
2018-06-29T08:41:05.583Z,35.57
2018-06-29T08:42:05.594Z,35.21
2018-06-29T08:43:05.858Z,34.66
2018-06-29T08:44:05.596Z,33.87
2018-06-29T08:45:05.322Z,33.17
2018-06-29T08:46:05.853Z,32.51
2018-06-29T08:47:05.721Z,32.05
2018-06-29T08:48:05.586Z,31.6
2018-06-29T08:49:05.324Z,31.04
2018-06-29T08:50:05.349Z,30.56
2018-06-29T08:51:05.855Z,30.19
2018-06-29T08:52:05.589Z,29.84
2018-06-29T08:53:05.850Z,29.59
2018-06-29T08:54:05.590Z,29.22
2018-06-29T08:55:05.728Z,28.93
2018-06-29T08:56:05.322Z,28.6
2018-06-29T08:57:05.587Z,28.36
2018-06-29T08:58:05.321Z,28.28
2018-06-29T08:59:05.584Z,28.14
2018-06-29T09:00:05.588Z,28.09
2018-06-29T09:01:05.336Z,28.33
2018-06-29T09:02:05.851Z,28.87
2018-06-29T09:03:05.326Z,29.47
2018-06-29T09:04:05.587Z,30.05
2018-06-29T09:05:06.226Z,30.64
2018-06-29T09:06:05.851Z,31.28
2018-06-29T09:07:05.339Z,31.6
2018-06-29T09:08:05.878Z,32.18
2018-06-29T09:09:05.592Z,32.69
2018-06-29T09:10:05.597Z,33.14
2018-06-29T09:11:06.069Z,33.42
2018-06-29T09:12:05.873Z,33.71
2018-06-29T09:13:05.605Z,33.98
2018-06-29T09:14:05.632Z,34.24
2018-06-29T09:15:05.611Z,34.5
2018-06-29T09:16:05.364Z,34.73
2018-06-29T09:17:05.632Z,34.86
2018-06-29T09:18:05.911Z,34.92
2018-06-29T09:19:05.395Z,34.73
2018-06-29T09:20:05.629Z,34.32
2018-06-29T09:21:05.636Z,34.17
2018-06-29T09:22:05.905Z,34.08
2018-06-29T09:23:05.638Z,33.9
2018-06-29T09:24:05.381Z,33.85
2018-06-29T09:25:05.387Z,33.43
2018-06-29T09:26:05.650Z,33.07
2018-06-29T09:27:05.649Z,32.86
2018-06-29T09:28:05.927Z,32.58
2018-06-29T09:29:05.403Z,32.66
2018-06-29T09:30:06.284Z,32.57
2018-06-29T09:31:05.941Z,32.51
2018-06-29T09:32:05.665Z,32.21
2018-06-29T09:33:06.363Z,32
2018-06-29T09:34:05.716Z,31.7
2018-06-29T09:35:05.670Z,31.43
2018-06-29T09:36:05.408Z,31.49
2018-06-29T09:37:05.682Z,31.54
2018-06-29T09:38:05.683Z,31.55
2018-06-29T09:39:05.682Z,31.75
2018-06-29T09:40:05.424Z,31.99
2018-06-29T09:41:05.975Z,32.52
2018-06-29T09:42:05.761Z,32.88
2018-06-29T09:43:05.701Z,32.96
2018-06-29T09:44:05.697Z,33.19
2018-06-29T09:45:05.969Z,33.46
2018-06-29T09:46:05.446Z,33.45
2018-06-29T09:47:05.980Z,33.19
2018-06-29T09:48:06.131Z,32.93
2018-06-29T09:49:05.988Z,32.58
2018-06-29T09:50:05.723Z,32.36
2018-06-29T09:51:05.994Z,32.15
2018-06-29T09:52:05.733Z,31.8
2018-06-29T09:53:06.004Z,31.58
2018-06-29T09:54:05.832Z,31.36
2018-06-29T09:55:05.481Z,31.15
2018-06-29T09:56:06.006Z,31.11
2018-06-29T09:57:05.744Z,30.93
2018-06-29T09:58:05.753Z,30.78
2018-06-29T09:59:05.487Z,30.56
2018-06-29T10:00:05.753Z,30.33
2018-06-29T10:01:05.882Z,30.16
2018-06-29T10:02:05.485Z,30.29
2018-06-29T10:03:05.755Z,30.19
2018-06-29T10:04:05.746Z,29.97
2018-06-29T10:05:05.486Z,29.89
2018-06-29T10:06:06.022Z,29.75
2018-06-29T10:07:05.756Z,29.7
2018-06-29T10:08:05.750Z,29.59
2018-06-29T10:09:06.023Z,29.57
2018-06-29T10:10:05.750Z,29.53
2018-06-29T10:11:05.497Z,29.49
2018-06-29T10:12:06.026Z,29.59
2018-06-29T10:13:05.751Z,29.7
2018-06-29T10:14:06.222Z,29.77
2018-06-29T10:15:06.024Z,29.77
2018-06-29T10:16:05.752Z,29.7
2018-06-29T10:17:06.017Z,29.55
2018-06-29T10:18:06.016Z,29.74
2018-06-29T10:19:06.006Z,29.77
2018-06-29T10:20:06.056Z,29.82
2018-06-29T10:21:06.011Z,29.82
2018-06-29T10:22:05.806Z,29.94
2018-06-29T10:23:06.015Z,30
2018-06-29T10:24:05.480Z,30.05
2018-06-29T10:25:05.796Z,30.26
2018-06-29T10:26:05.480Z,30.78
2018-06-29T10:27:05.482Z,31.38
2018-06-29T10:28:06.251Z,31.92
2018-06-29T10:29:05.747Z,32.21
2018-06-29T10:30:05.748Z,32.67
2018-06-29T10:31:05.754Z,33.13
2018-06-29T10:32:06.028Z,33.41
2018-06-29T10:33:05.764Z,33.71
2018-06-29T10:34:05.969Z,33.92
2018-06-29T10:35:05.766Z,34.19
2018-06-29T10:36:06.344Z,34.19
2018-06-29T10:37:05.777Z,34.41
2018-06-29T10:38:05.786Z,34.57
2018-06-29T10:39:05.795Z,34.84
2018-06-29T10:40:05.520Z,34.92
2018-06-29T10:41:05.797Z,35.26
2018-06-29T10:42:05.805Z,35.57
2018-06-29T10:43:06.065Z,35.81
2018-06-29T10:44:06.087Z,36.15
2018-06-29T10:45:06.420Z,36.33
2018-06-29T10:46:05.821Z,36.39
2018-06-29T10:47:05.834Z,36.41
2018-06-29T10:48:06.096Z,36.49
2018-06-29T10:49:06.104Z,36.64
2018-06-29T10:50:06.121Z,36.82
2018-06-29T10:51:06.118Z,36.65
2018-06-29T10:52:05.870Z,36.76
2018-06-29T10:53:05.872Z,36.97
2018-06-29T10:54:05.885Z,36.98
2018-06-29T10:55:06.160Z,37.12
2018-06-29T10:56:06.161Z,37.09
2018-06-29T10:57:06.173Z,36.75
2018-06-29T10:58:05.906Z,36.7
2018-06-29T10:59:06.184Z,36.86
2018-06-29T11:00:05.923Z,36.8
2018-06-29T11:01:05.934Z,36.75
2018-06-29T11:02:06.201Z,36.76
2018-06-29T11:03:06.256Z,36.94
2018-06-29T11:04:05.948Z,37.14
2018-06-29T11:05:05.697Z,37.33
2018-06-29T11:06:06.239Z,37.56
2018-06-29T11:07:05.980Z,37.68
2018-06-29T11:08:05.984Z,37.81
2018-06-29T11:09:05.729Z,38.1
2018-06-29T11:10:06.005Z,38.18
2018-06-29T11:11:06.390Z,38.24
2018-06-29T11:12:06.026Z,38.45
2018-06-29T11:13:06.029Z,38.39
2018-06-29T11:14:05.766Z,38.3
2018-06-29T11:15:06.073Z,38.24
2018-06-29T11:16:06.054Z,38.46
2018-06-29T11:17:06.080Z,38.55
2018-06-29T11:18:06.364Z,38.57
2018-06-29T11:19:06.085Z,38.27
2018-06-29T11:20:06.361Z,38.34
2018-06-29T11:21:05.830Z,38.48
2018-06-29T11:22:05.838Z,38.46
2018-06-29T11:23:06.375Z,38.45
2018-06-29T11:24:05.860Z,38.45
2018-06-29T11:25:06.133Z,38.42
2018-06-29T11:26:06.141Z,38.45
2018-06-29T11:27:06.146Z,38.04
2018-06-29T11:28:06.159Z,37.81
2018-06-29T11:29:06.433Z,37.73
2018-06-29T11:30:06.175Z,37.77
2018-06-29T11:31:05.921Z,37.92
2018-06-29T11:32:05.932Z,38.04
2018-06-29T11:33:06.205Z,38.11
2018-06-29T11:34:06.445Z,38.26
2018-06-29T11:35:06.225Z,38.45
2018-06-29T11:36:05.964Z,38.71
2018-06-29T11:37:06.239Z,38.87
2018-06-29T11:38:05.980Z,39.05
2018-06-29T11:39:06.253Z,38.57
2018-06-29T11:40:06.543Z,38.45
2018-06-29T11:41:06.542Z,38.44
2018-06-29T11:42:06.015Z,38.49
2018-06-29T11:43:06.027Z,38.63
2018-06-29T11:44:06.460Z,38.42
2018-06-29T11:45:06.581Z,38.57
2018-06-29T11:46:06.581Z,38.82
2018-06-29T11:47:06.331Z,38.87
2018-06-29T11:48:06.341Z,38.9
2018-06-29T11:49:06.352Z,38.78
2018-06-29T11:50:06.632Z,38.67
2018-06-29T11:51:06.630Z,38.66
2018-06-29T11:52:06.376Z,39.09
2018-06-29T11:53:06.388Z,39.15
2018-06-29T11:54:06.398Z,39.14
2018-06-29T11:55:06.148Z,39.06
2018-06-29T11:56:06.157Z,38.85
2018-06-29T11:57:06.705Z,38.9
2018-06-29T11:58:06.439Z,38.98
2018-06-29T11:59:06.450Z,39.01
2018-06-29T12:00:06.456Z,38.87
2018-06-29T12:01:06.466Z,38.86
2018-06-29T12:02:06.477Z,39.1
2018-06-29T12:03:06.487Z,39.14
2018-06-29T12:04:06.495Z,39.17
2018-06-29T12:05:06.501Z,39.13
2018-06-29T12:06:06.247Z,39.05
2018-06-29T12:07:06.537Z,39.09
2018-06-29T12:08:06.541Z,39.1
2018-06-29T12:09:06.834Z,39.3
2018-06-29T12:10:06.573Z,39.51
2018-06-29T12:11:06.301Z,39.65
2018-06-29T12:12:06.840Z,39.81
2018-06-29T12:13:06.585Z,39.96
2018-06-29T12:14:06.590Z,40.23
2018-06-29T12:15:06.899Z,40.5
2018-06-29T12:16:06.349Z,40.47
2018-06-29T12:17:06.899Z,40.61
2018-06-29T12:18:06.640Z,40.54
2018-06-29T12:19:06.641Z,40.62
2018-06-29T12:20:06.391Z,40.64
2018-06-29T12:21:06.665Z,40.66
2018-06-29T12:22:06.680Z,40.59
2018-06-29T12:23:06.944Z,40.68
2018-06-29T12:24:06.981Z,40.69
2018-06-29T12:25:06.977Z,40.74
2018-06-29T12:26:06.980Z,40.75
2018-06-29T12:27:06.738Z,40.66
2018-06-29T12:28:07.315Z,40.62
2018-06-29T12:29:07.011Z,40.15
2018-06-29T12:30:06.546Z,39.99
2018-06-29T12:31:06.782Z,39.92
2018-06-29T12:32:07.050Z,39.8
2018-06-29T12:33:07.066Z,39.77
2018-06-29T12:34:07.051Z,39.37
2018-06-29T12:35:06.539Z,39.69
2018-06-29T12:36:06.588Z,39.76
2018-06-29T12:37:06.826Z,39.8
2018-06-29T12:38:07.367Z,39.55
2018-06-29T12:39:06.846Z,39.78
2018-06-29T12:40:07.121Z,39.93
2018-06-29T12:41:06.860Z,39.89
2018-06-29T12:42:06.869Z,39.8
2018-06-29T12:43:06.876Z,39.77
2018-06-29T12:44:07.161Z,40
2018-06-29T12:45:07.179Z,40.14
2018-06-29T12:46:06.976Z,40.18
2018-06-29T12:47:06.927Z,40.29
2018-06-29T12:48:06.664Z,40.36
2018-06-29T12:49:06.677Z,40.4
2018-06-29T12:50:06.680Z,40.5
2018-06-29T12:51:06.962Z,40.14
2018-06-29T12:52:06.964Z,39.98
2018-06-29T12:53:06.978Z,39.62
2018-06-29T12:54:06.996Z,39.7
2018-06-29T12:55:06.998Z,39.78
2018-06-29T12:56:06.742Z,39.9
2018-06-29T12:57:07.194Z,40.1
2018-06-29T12:58:06.765Z,40.3
2018-06-29T12:59:07.035Z,40.38
2018-06-29T13:00:07.049Z,40.19
2018-06-29T13:01:07.065Z,40
2018-06-29T13:02:07.301Z,39.76
2018-06-29T13:03:07.094Z,39.59
2018-06-29T13:04:06.827Z,39.39
2018-06-29T13:05:07.383Z,39.58
2018-06-29T13:06:07.141Z,39.77
2018-06-29T13:07:07.180Z,39.74
2018-06-29T13:08:07.397Z,39.78
2018-06-29T13:09:07.146Z,39.62
2018-06-29T13:10:07.151Z,39.56
2018-06-29T13:11:07.163Z,39.39
2018-06-29T13:12:07.435Z,39.18
2018-06-29T13:13:07.177Z,39.1
2018-06-29T13:14:07.504Z,39.27
2018-06-29T13:15:07.511Z,39.54
2018-06-29T13:16:07.480Z,39.59
2018-06-29T13:17:06.944Z,39.67
2018-06-29T13:18:07.215Z,39.7
2018-06-29T13:19:07.492Z,39.8
2018-06-29T13:20:07.245Z,39.76
2018-06-29T13:21:06.982Z,39.73
2018-06-29T13:22:07.526Z,39.65
2018-06-29T13:23:07.263Z,39.37
2018-06-29T13:24:07.546Z,39.28
2018-06-29T13:25:07.520Z,39.21
2018-06-29T13:26:07.556Z,39.33
2018-06-29T13:27:07.313Z,39.21
2018-06-29T13:28:07.582Z,39.01
2018-06-29T13:29:07.596Z,38.99
2018-06-29T13:30:07.067Z,39.03
2018-06-29T13:31:07.346Z,39.01
2018-06-29T13:32:07.614Z,39.03
2018-06-29T13:33:07.362Z,38.9
2018-06-29T13:34:07.837Z,38.58
2018-06-29T13:35:07.386Z,38.38
2018-06-29T13:36:07.536Z,38.41
2018-06-29T13:37:07.399Z,38.36
2018-06-29T13:38:07.411Z,38.48
2018-06-29T13:39:07.417Z,38.44
2018-06-29T13:40:07.701Z,38.36
2018-06-29T13:41:07.179Z,38.34
2018-06-29T13:42:07.449Z,38.3
2018-06-29T13:43:07.190Z,38.2
2018-06-29T13:44:07.571Z,38.12
2018-06-29T13:45:07.481Z,38.17
2018-06-29T13:46:07.757Z,38.23
2018-06-29T13:47:07.227Z,38.39
2018-06-29T13:48:07.767Z,38.67
2018-06-29T13:49:07.521Z,39.02
2018-06-29T13:50:07.782Z,39.09
2018-06-29T13:51:07.528Z,39.15
2018-06-29T13:52:07.548Z,39.08
2018-06-29T13:53:07.276Z,39.25
2018-06-29T13:54:07.827Z,39.32
2018-06-29T13:55:07.301Z,39.2
2018-06-29T13:56:07.852Z,39.13
2018-06-29T13:57:07.864Z,39.03
2018-06-29T13:58:07.587Z,38.78
2018-06-29T13:59:07.872Z,38.79
2018-06-29T14:00:07.877Z,38.27
2018-06-29T14:01:07.888Z,38.14
2018-06-29T14:02:07.619Z,38.23
2018-06-29T14:03:07.897Z,38.2
2018-06-29T14:04:07.656Z,38.17
2018-06-29T14:05:07.382Z,38.18
2018-06-29T14:06:07.658Z,38.3
2018-06-29T14:07:07.402Z,38.18
2018-06-29T14:08:07.680Z,38.11
2018-06-29T14:09:07.419Z,38.17
2018-06-29T14:10:07.693Z,37.92
2018-06-29T14:11:07.967Z,37.83
2018-06-29T14:12:07.708Z,37.88
2018-06-29T14:13:07.712Z,37.89
2018-06-29T14:14:07.467Z,37.73
2018-06-29T14:15:07.737Z,37.71
2018-06-29T14:16:08.014Z,37.67
2018-06-29T14:17:08.017Z,37.5
2018-06-29T14:18:07.888Z,37.36
2018-06-29T14:19:07.770Z,37.41
2018-06-29T14:20:07.783Z,37.54
2018-06-29T14:21:07.790Z,37.66
2018-06-29T14:22:07.792Z,37.73
2018-06-29T14:23:07.808Z,37.61
2018-06-29T14:24:07.811Z,37.59
2018-06-29T14:25:07.549Z,37.56
2018-06-29T14:26:07.556Z,37.38
2018-06-29T14:27:07.831Z,37.26
2018-06-29T14:28:07.837Z,37.16
2018-06-29T14:29:08.048Z,37.12
2018-06-29T14:30:07.587Z,37.04
2018-06-29T14:31:08.137Z,36.79
2018-06-29T14:32:08.128Z,36.57
2018-06-29T14:33:07.884Z,36.65
2018-06-29T14:34:07.627Z,36.46
2018-06-29T14:35:07.899Z,36.65
2018-06-29T14:36:07.903Z,36.7
2018-06-29T14:37:07.649Z,36.76
2018-06-29T14:38:07.926Z,36.79
2018-06-29T14:39:07.922Z,36.79
2018-06-29T14:40:08.217Z,36.92
2018-06-29T14:41:07.979Z,37.01
2018-06-29T14:42:08.215Z,37.12
2018-06-29T14:43:08.218Z,37.12
2018-06-29T14:44:07.966Z,37.28
2018-06-29T14:45:07.979Z,37.33
2018-06-29T14:46:07.988Z,37.24
2018-06-29T14:47:07.720Z,37.2
2018-06-29T14:48:07.723Z,37.04
2018-06-29T14:49:07.998Z,36.9
2018-06-29T14:50:08.006Z,36.7
2018-06-29T14:51:08.012Z,36.57
2018-06-29T14:52:07.754Z,36.45
2018-06-29T14:53:08.029Z,36.39
2018-06-29T14:54:08.043Z,36.41
2018-06-29T14:55:07.790Z,36.46
2018-06-29T14:56:08.077Z,36.58
2018-06-29T14:57:08.053Z,36.56
2018-06-29T14:58:07.796Z,36.72
2018-06-29T14:59:08.077Z,36.58
2018-06-29T15:00:08.383Z,36.58
2018-06-29T15:01:08.084Z,36.6
2018-06-29T15:02:08.350Z,36.52
2018-06-29T15:03:08.102Z,36.33
2018-06-29T15:04:08.364Z,36.26
2018-06-29T15:05:08.381Z,36.42
2018-06-29T15:06:07.856Z,36.46
2018-06-29T15:07:08.386Z,36.48
2018-06-29T15:08:08.390Z,36.29
2018-06-29T15:09:08.412Z,36.38
2018-06-29T15:10:08.161Z,36.12
2018-06-29T15:11:07.888Z,36
2018-06-29T15:12:08.160Z,36
2018-06-29T15:13:08.164Z,35.97
2018-06-29T15:14:08.442Z,35.99
2018-06-29T15:15:08.442Z,35.93
2018-06-29T15:16:08.456Z,35.79
2018-06-29T15:17:08.462Z,35.74
2018-06-29T15:18:08.206Z,35.69
2018-06-29T15:19:08.463Z,35.66
2018-06-29T15:20:08.473Z,35.67
2018-06-29T15:21:08.209Z,35.79
2018-06-29T15:22:08.686Z,35.69
2018-06-29T15:23:08.215Z,35.45
2018-06-29T15:24:08.222Z,35.55
2018-06-29T15:25:08.223Z,35.47
2018-06-29T15:26:07.968Z,35.3
2018-06-29T15:27:08.234Z,35.13
2018-06-29T15:28:08.235Z,35.01
2018-06-29T15:29:08.244Z,34.92
2018-06-29T15:30:07.983Z,34.94
2018-06-29T15:31:08.316Z,34.92
2018-06-29T15:32:07.986Z,34.91
2018-06-29T15:33:08.514Z,34.86
2018-06-29T15:34:08.718Z,34.88
2018-06-29T15:35:08.253Z,34.92
2018-06-29T15:36:08.254Z,34.92
2018-06-29T15:37:08.256Z,34.84
2018-06-29T15:38:08.262Z,34.83
2018-06-29T15:39:08.260Z,34.74
2018-06-29T15:40:08.271Z,34.69
2018-06-29T15:41:08.263Z,34.42
2018-06-29T15:42:08.529Z,34.23
2018-06-29T15:43:08.267Z,34.05
2018-06-29T15:44:08.269Z,34
2018-06-29T15:45:08.001Z,34.17
2018-06-29T15:46:08.266Z,34.02
2018-06-29T15:47:08.280Z,33.71
2018-06-29T15:48:08.002Z,33.6
2018-06-29T15:49:08.536Z,33.64
2018-06-29T15:50:08.001Z,33.39
2018-06-29T15:51:08.272Z,33.42
2018-06-29T15:52:08.527Z,33.39
2018-06-29T15:53:08.264Z,33.37
2018-06-29T15:54:08.003Z,33.46
2018-06-29T15:55:08.311Z,33.46
2018-06-29T15:56:08.000Z,33.41
2018-06-29T15:57:08.003Z,33.39
2018-06-29T15:58:08.265Z,33.3
2018-06-29T15:59:07.999Z,33.26
2018-06-29T16:00:08.004Z,33.29
2018-06-29T16:01:08.529Z,33.3
2018-06-29T16:02:08.268Z,33.14
2018-06-29T16:03:08.262Z,33.13
2018-06-29T16:04:08.001Z,33.1
2018-06-29T16:05:08.527Z,33.07
2018-06-29T16:06:07.998Z,33.17
2018-06-29T16:07:08.261Z,33.1
2018-06-29T16:08:08.526Z,33.07
2018-06-29T16:09:08.521Z,32.92
2018-06-29T16:10:08.523Z,32.85
2018-06-29T16:11:08.522Z,32.81
2018-06-29T16:12:08.560Z,32.59
2018-06-29T16:13:08.250Z,32.47
2018-06-29T16:14:08.246Z,32.48
2018-06-29T16:15:08.519Z,32.49
2018-06-29T16:16:07.983Z,32.36
2018-06-29T16:17:08.256Z,32.37
2018-06-29T16:18:08.245Z,32.39
2018-06-29T16:19:07.987Z,32.42
2018-06-29T16:20:08.239Z,32.51
2018-06-29T16:21:08.505Z,32.52
2018-06-29T16:22:08.505Z,32.52
2018-06-29T16:23:07.975Z,32.47
2018-06-29T16:24:08.502Z,32.3
2018-06-29T16:25:08.496Z,32.35
2018-06-29T16:26:07.965Z,32.37
2018-06-29T16:27:08.234Z,32.35
2018-06-29T16:28:08.501Z,32.33
2018-06-29T16:29:07.957Z,32.2
2018-06-29T16:30:07.963Z,32.24
2018-06-29T16:31:08.225Z,32.25
2018-06-29T16:32:07.953Z,32.22
2018-06-29T16:33:08.477Z,32.17
2018-06-29T16:34:08.213Z,32.14
2018-06-29T16:35:08.211Z,32.13
2018-06-29T16:36:07.948Z,32.22
2018-06-29T16:37:08.209Z,32.33
2018-06-29T16:38:08.209Z,32.47
2018-06-29T16:39:07.942Z,32.49
2018-06-29T16:40:08.202Z,32.49
2018-06-29T16:41:08.200Z,32.57
2018-06-29T16:42:07.935Z,32.58
2018-06-29T16:43:07.934Z,32.51
2018-06-29T16:44:08.455Z,32.49
2018-06-29T16:45:07.924Z,32.36
2018-06-29T16:46:08.196Z,32.27
2018-06-29T16:47:08.189Z,32.15
2018-06-29T16:48:08.460Z,32.11
2018-06-29T16:49:08.186Z,32.06
2018-06-29T16:50:08.181Z,32.07
2018-06-29T16:51:07.917Z,32.13
2018-06-29T16:52:07.917Z,32.03
2018-06-29T16:53:08.446Z,32.06
2018-06-29T16:54:08.173Z,31.99
2018-06-29T16:55:08.439Z,32
2018-06-29T16:56:08.182Z,32
2018-06-29T16:57:08.445Z,32.03
2018-06-29T16:58:08.174Z,32.07
2018-06-29T16:59:08.181Z,31.98
2018-06-29T17:00:08.175Z,31.98
2018-06-29T17:01:08.172Z,31.93
2018-06-29T17:02:07.910Z,31.8
2018-06-29T17:03:08.435Z,31.84
2018-06-29T17:04:07.903Z,31.82
2018-06-29T17:05:08.168Z,31.88
2018-06-29T17:06:07.903Z,31.79
2018-06-29T17:07:08.437Z,31.84
2018-06-29T17:08:08.164Z,31.76
2018-06-29T17:09:08.162Z,31.87
2018-06-29T17:10:08.162Z,31.88
2018-06-29T17:11:08.170Z,31.75
2018-06-29T17:12:08.163Z,31.73
2018-06-29T17:13:08.173Z,31.62
2018-06-29T17:14:08.163Z,31.57
2018-06-29T17:15:08.158Z,31.58
2018-06-29T17:16:07.887Z,31.53
2018-06-29T17:17:08.154Z,31.45
2018-06-29T17:18:08.413Z,31.42
2018-06-29T17:19:08.151Z,31.53
2018-06-29T17:20:08.158Z,31.45
2018-06-29T17:21:08.414Z,31.42
2018-06-29T17:22:08.141Z,31.42
2018-06-29T17:23:08.411Z,31.42
2018-06-29T17:24:08.241Z,31.27
2018-06-29T17:25:07.974Z,31.24
2018-06-29T17:26:08.140Z,31.09
2018-06-29T17:27:07.868Z,31.2
2018-06-29T17:28:08.397Z,31.11